Pontyberem, United Kingdom
Current Conditions -  °F | °C
As of 11:50 AM on Thursday 30 Oct 2014 (Local Time) from EGOP Reporting Station
Overcast Overcast  
Wind Chill: 61°   Ceiling: 4000
Heat Index: 61°   Visibility: 6mi
Dew Point: 59°   Wind: 15mph
Humidity: 94%   Direction: 160°SSE
Pressure: 29.97"   Gusts: NA
Location:  51.78°N, 4.17°W
Report Text: EGOP 301150Z 16013KT 9999 OVC040 16/15 Q1015 BLU
Loading
Personal Weather Stations






























Interactive Weather Map New forecast layout! Learn more

10-Day Weather Forecast

Advertisements
Track Severe Weather on mobile